Terminal Aerodrome Forecast
Issued by NWS

Home | Current Version | Previous Version | Text Only | Print | Product List | Glossary On
Versions: 1 2 3 4 5 6 7 8 9 10 11 12 13 14 15 16 17
000
FTUS46 KLOX 110006 CCA
TAFPMD
TAF COR
KPMD 110006Z 1100/1124 28012G20KT P6SM SCT070 BKN200
     FM110300 26014KT P6SM FEW035 BKN070
     FM111000 24010KT P6SM VCSH SCT035 BKN060
     FM111400 24012G18KT P6SM SCT060 BKN200
     FM111900 26015G25KT P6SM FEW060=

USA.gov is the U.S. government's official web portal to all federal, state and local government web resources and services.